Time;durP1;ratioP1;P1;durP2;ratioP2;P2;SDS_P1;SDS_P2;PMS_P1;PMS_P2;Temp;Humidity;BMP_temperature;BMP_pressure;BME280_temperature;BME280_humidity;BME280_pressure;Samples;Min_cycle;Max_cycle;Signal;HPM_P1;HPM_P2
2021/10/19 00:02:18;;;;;;;23.85;18.13;;;15.00;95.70;;;;;;4938796;29;20052;-76
2021/10/19 00:04:46;;;;;;;23.98;17.90;;;14.90;95.70;;;;;;4957948;29;20059;-76
2021/10/19 00:07:14;;;;;;;23.90;17.80;;;14.90;95.60;;;;;;4957373;29;20046;-76
2021/10/19 00:09:41;;;;;;;22.35;19.50;;;14.90;95.60;;;;;;4957244;29;20071;-76
2021/10/19 00:12:09;;;;;;;24.10;18.52;;;14.90;95.50;;;;;;4957229;29;20043;-76
2021/10/19 00:19:11;;;;;;;23.67;18.83;;;14.80;95.50;;;;;;4957581;28;20048;-76
2021/10/19 00:21:39;;;;;;;24.73;19.67;;;14.70;95.50;;;;;;4956015;29;20481;-76
2021/10/19 00:24:06;;;;;;;25.90;18.38;;;14.70;95.60;;;;;;4956867;29;20424;-76
2021/10/19 00:26:34;;;;;;;31.15;20.00;;;14.60;95.70;;;;;;4957053;29;20481;-76
2021/10/19 00:29:01;;;;;;;25.98;20.00;;;14.60;95.80;;;;;;4939928;29;20043;-76
2021/10/19 00:31:29;;;;;;;26.25;19.00;;;14.60;95.90;;;;;;4957010;29;20047;-76
2021/10/19 00:33:57;;;;;;;29.33;19.98;;;14.60;95.80;;;;;;4940385;29;20055;-76
2021/10/19 00:36:24;;;;;;;23.70;18.13;;;14.70;95.80;;;;;;4957641;29;20062;-75
2021/10/19 00:38:52;;;;;;;25.67;19.17;;;14.60;95.80;;;;;;4956458;29;20051;-75
2021/10/19 00:41:21;;;;;;;27.48;19.38;;;14.60;95.80;;;;;;4939255;29;20507;-75
2021/10/19 00:43:50;;;;;;;28.02;18.20;;;14.70;95.80;;;;;;4956671;29;20477;-76
2021/10/19 00:46:18;;;;;;;20.45;16.38;;;14.60;95.80;;;;;;4970838;28;20055;-76
2021/10/19 00:48:46;;;;;;;17.70;15.30;;;14.70;95.80;;;;;;4971478;28;20058;-75
2021/10/19 00:51:15;;;;;;;17.17;14.13;;;14.70;95.80;;;;;;4923817;29;20506;-75
2021/10/19 00:53:43;;;;;;;16.50;14.18;;;14.70;95.70;;;;;;4939428;29;20470;-75
2021/10/19 00:56:12;;;;;;;19.10;14.50;;;14.70;95.70;;;;;;4956486;29;20043;-76
2021/10/19 00:58:40;;;;;;;17.98;14.93;;;14.70;95.70;;;;;;4956576;29;20051;-75
2021/10/19 01:01:09;;;;;;;18.55;14.88;;;14.70;95.70;;;;;;4939384;29;20342;-76
2021/10/19 01:03:37;;;;;;;17.95;15.30;;;14.70;95.70;;;;;;4957030;29;20039;-76
2021/10/19 01:06:07;;;;;;;17.02;15.18;;;14.70;95.70;;;;;;4956378;29;20047;-76
2021/10/19 01:08:37;;;;;;;15.15;13.45;;;14.70;95.70;;;;;;4957122;29;20386;-75
2021/10/19 01:11:06;;;;;;;17.48;14.13;;;14.70;95.60;;;;;;4956304;29;20055;-75
2021/10/19 01:13:34;;;;;;;18.15;13.95;;;14.70;95.70;;;;;;4944407;28;20055;-76
2021/10/19 01:16:07;;;;;;;18.02;14.02;;;14.70;95.70;;;;;;4956629;29;20419;-75
2021/10/19 01:18:36;;;;;;;17.75;14.57;;;14.70;95.70;;;;;;4956705;29;20043;-76
2021/10/19 01:21:06;;;;;;;15.07;13.48;;;14.70;95.70;;;;;;4955674;29;20495;-76
2021/10/19 01:23:34;;;;;;;16.70;14.60;;;14.80;95.70;;;;;;4956659;29;20070;-75
2021/10/19 01:26:04;;;;;;;21.55;14.68;;;14.80;95.70;;;;;;4956478;29;20047;-75
2021/10/19 01:28:32;;;;;;;18.17;14.93;;;14.80;95.60;;;;;;4954397;29;20500;-75
2021/10/19 01:31:01;;;;;;;16.75;14.80;;;14.80;95.60;;;;;;4956083;29;20522;-75
2021/10/19 01:33:29;;;;;;;17.17;15.38;;;14.80;95.50;;;;;;4955801;29;20563;-75
2021/10/19 01:35:57;;;;;;;16.50;14.77;;;14.80;95.50;;;;;;4956227;29;20062;-75
2021/10/19 01:38:27;;;;;;;16.15;14.15;;;14.80;95.50;;;;;;4954642;29;20505;-75
2021/10/19 01:40:56;;;;;;;15.50;13.95;;;14.80;95.40;;;;;;4955923;29;20414;-75
2021/10/19 01:43:26;;;;;;;17.83;14.35;;;14.80;95.40;;;;;;4955637;29;20468;-75
2021/10/19 01:45:59;;;;;;;15.95;14.25;;;14.80;95.40;;;;;;4956285;29;20496;-75
2021/10/19 01:48:28;;;;;;;14.60;13.10;;;14.80;95.40;;;;;;4956271;29;20044;-75
2021/10/19 01:50:56;;;;;;;16.08;13.55;;;14.80;95.40;;;;;;4956332;29;20051;-75
2021/10/19 01:53:24;;;;;;;18.50;14.48;;;14.80;95.30;;;;;;4956847;29;20062;-75
2021/10/19 01:55:53;;;;;;;16.42;14.25;;;14.80;95.30;;;;;;4958386;29;20070;-75
2021/10/19 01:58:24;;;;;;;16.52;14.18;;;14.80;95.20;;;;;;4954885;29;20071;-75
2021/10/19 02:00:53;;;;;;;17.85;14.63;;;14.80;95.20;;;;;;4954773;29;20051;-75
2021/10/19 02:03:21;;;;;;;17.48;14.40;;;14.70;95.20;;;;;;4970202;28;20055;-75
2021/10/19 02:05:50;;;;;;;18.65;14.57;;;14.70;95.20;;;;;;4955141;28;20493;-75
2021/10/19 02:08:18;;;;;;;17.13;14.40;;;14.70;95.30;;;;;;4955956;28;20055;-75
2021/10/19 02:10:46;;;;;;;16.77;14.68;;;14.70;95.30;;;;;;4970733;28;20051;-75
2021/10/19 02:13:14;;;;;;;18.48;14.73;;;14.70;95.30;;;;;;4954447;29;20496;-75
2021/10/19 02:15:42;;;;;;;19.98;14.90;;;14.70;95.30;;;;;;4953540;29;20051;-76
2021/10/19 02:18:10;;;;;;;18.80;16.02;;;14.70;95.30;;;;;;4953790;29;20058;-75
2021/10/19 02:20:39;;;;;;;19.50;15.90;;;14.70;95.30;;;;;;4955114;29;20066;-75
2021/10/19 02:23:08;;;;;;;19.35;16.33;;;14.80;95.30;;;;;;4954071;29;20051;-75
2021/10/19 02:25:36;;;;;;;21.58;16.45;;;14.80;95.20;;;;;;4955324;28;20051;-75
2021/10/19 02:28:04;;;;;;;23.20;17.23;;;14.80;95.20;;;;;;4955575;28;20058;-75
2021/10/19 02:30:32;;;;;;;22.63;18.15;;;14.80;95.20;;;;;;4955155;29;20062;-75
2021/10/19 02:32:59;;;;;;;24.30;18.15;;;14.80;95.10;;;;;;4955116;29;20047;-75
2021/10/19 02:35:27;;;;;;;23.45;18.00;;;14.80;95.10;;;;;;4954933;28;20533;-75
2021/10/19 02:37:55;;;;;;;28.60;18.30;;;14.80;95.10;;;;;;4955326;29;20044;-75
2021/10/19 02:40:22;;;;;;;25.85;17.77;;;14.80;95.00;;;;;;4955052;29;20043;-74
2021/10/19 02:42:50;;;;;;;25.55;18.05;;;14.80;95.00;;;;;;4955520;29;20047;-74
2021/10/19 02:45:18;;;;;;;27.77;19.27;;;14.80;95.00;;;;;;4954649;29;20055;-75
2021/10/19 02:47:45;;;;;;;28.27;19.00;;;14.80;95.00;;;;;;4953679;29;20039;-75
2021/10/19 02:50:14;;;;;;;29.55;18.55;;;14.80;95.00;;;;;;4954710;29;20050;-76
2021/10/19 02:52:42;;;;;;;26.70;18.80;;;14.80;95.00;;;;;;4954168;29;20047;-75
2021/10/19 02:55:12;;;;;;;25.05;18.08;;;14.80;95.00;;;;;;4954680;29;20144;-75
2021/10/19 02:57:40;;;;;;;27.33;17.52;;;14.80;95.00;;;;;;4955132;29;20510;-75
2021/10/19 03:00:08;;;;;;;29.33;17.08;;;14.80;95.00;;;;;;4955081;29;20054;-75
2021/10/19 03:02:36;;;;;;;24.73;18.17;;;14.90;95.00;;;;;;4954875;29;20054;-75
2021/10/19 03:05:04;;;;;;;22.85;17.00;;;14.80;94.90;;;;;;4969393;28;20044;-75
2021/10/19 03:07:32;;;;;;;22.00;16.45;;;14.90;94.90;;;;;;4954541;29;20488;-76
2021/10/19 03:10:00;;;;;;;18.63;13.95;;;14.90;94.80;;;;;;4953564;29;20069;-75
2021/10/19 03:12:27;;;;;;;19.02;13.98;;;14.90;94.80;;;;;;4937246;29;20055;-75
2021/10/19 03:14:55;;;;;;;17.42;13.02;;;14.90;94.80;;;;;;4954683;29;20047;-75
2021/10/19 03:17:22;;;;;;;21.23;13.02;;;14.90;94.70;;;;;;4955092;29;20047;-75
2021/10/19 03:19:50;;;;;;;18.92;13.52;;;14.90;94.70;;;;;;4954889;29;20058;-75
2021/10/19 03:22:18;;;;;;;17.40;12.18;;;14.90;94.60;;;;;;4953674;29;20074;-75
2021/10/19 03:24:46;;;;;;;16.50;11.82;;;14.90;94.60;;;;;;4954805;29;20044;-75
2021/10/19 03:27:14;;;;;;;17.05;11.82;;;14.80;94.60;;;;;;4954332;29;20047;-75
2021/10/19 03:29:42;;;;;;;17.08;11.05;;;14.80;94.70;;;;;;4954993;29;20493;-75
2021/10/19 03:32:10;;;;;;;11.55;10.30;;;14.80;94.70;;;;;;4969240;28;20054;-75
2021/10/19 03:34:38;;;;;;;15.80;10.20;;;14.80;94.70;;;;;;4954546;29;20050;-76
2021/10/19 03:37:06;;;;;;;16.15;10.18;;;14.70;94.70;;;;;;4955798;28;20047;-75
2021/10/19 03:39:33;;;;;;;14.07;10.20;;;14.70;94.70;;;;;;4941069;29;20051;-75
2021/10/19 03:42:01;;;;;;;11.43;8.90;;;14.70;94.80;;;;;;4940579;29;20067;-75
2021/10/19 03:44:29;;;;;;;13.68;8.52;;;14.70;94.80;;;;;;4957755;29;20062;-75
2021/10/19 03:46:57;;;;;;;11.75;8.10;;;14.70;94.90;;;;;;4957782;29;20489;-75
2021/10/19 03:49:24;;;;;;;10.82;7.45;;;14.70;94.80;;;;;;4957852;29;20051;-75
2021/10/19 03:51:52;;;;;;;8.27;6.38;;;14.80;94.80;;;;;;4959439;29;20517;-75
2021/10/19 03:58:55;;;;;;;8.05;6.30;;;14.80;94.70;;;;;;4957538;28;20043;-75
2021/10/19 04:01:23;;;;;;;7.53;6.25;;;14.80;94.70;;;;;;4957532;29;20043;-75
2021/10/19 04:03:51;;;;;;;8.88;6.53;;;14.70;94.60;;;;;;4940323;29;20055;-75
2021/10/19 04:06:18;;;;;;;7.72;6.22;;;14.80;94.70;;;;;;4958144;29;20051;-75
2021/10/19 04:08:46;;;;;;;9.70;6.75;;;14.80;94.70;;;;;;4957379;29;20047;-75
2021/10/19 04:11:14;;;;;;;8.43;5.68;;;14.80;94.70;;;;;;4957082;29;20051;-75
2021/10/19 04:13:42;;;;;;;10.60;6.22;;;14.80;94.70;;;;;;4957257;29;20058;-75
2021/10/19 04:16:10;;;;;;;9.73;6.47;;;14.80;94.60;;;;;;4957539;29;20051;-75
2021/10/19 04:18:38;;;;;;;9.98;6.10;;;14.90;94.60;;;;;;4972176;28;20047;-75
2021/10/19 04:21:05;;;;;;;11.55;7.03;;;14.90;94.70;;;;;;4957912;29;20059;-76
2021/10/19 04:23:33;;;;;;;7.47;6.05;;;14.90;94.60;;;;;;4939871;29;20051;-75
2021/10/19 04:26:01;;;;;;;8.20;6.97;;;14.90;94.60;;;;;;4956916;29;20058;-75
2021/10/19 04:28:28;;;;;;;11.38;7.55;;;15.00;94.60;;;;;;4939887;29;20062;-75
2021/10/19 04:30:56;;;;;;;10.95;7.35;;;15.00;94.60;;;;;;4956996;29;20077;-75
2021/10/19 04:33:23;;;;;;;12.02;8.27;;;15.00;94.70;;;;;;4957266;29;20058;-76
2021/10/19 04:35:52;;;;;;;10.95;7.97;;;15.00;94.70;;;;;;4956785;29;20058;-75
2021/10/19 04:38:19;;;;;;;10.80;8.65;;;15.00;94.70;;;;;;4957502;29;20503;-75
2021/10/19 04:40:47;;;;;;;9.52;7.78;;;15.00;94.70;;;;;;4956911;29;20074;-75
2021/10/19 04:43:14;;;;;;;10.85;8.20;;;15.00;94.70;;;;;;4956864;29;20047;-75
2021/10/19 04:45:42;;;;;;;12.07;8.75;;;15.10;94.70;;;;;;4956759;29;20225;-75
2021/10/19 04:48:09;;;;;;;12.80;8.80;;;15.10;94.70;;;;;;4955903;28;20495;-75
2021/10/19 04:50:37;;;;;;;10.63;8.73;;;15.10;94.70;;;;;;4923630;29;20052;-75
2021/10/19 04:53:05;;;;;;;12.27;8.75;;;15.10;94.70;;;;;;4940398;29;20361;-75
2021/10/19 04:55:32;;;;;;;13.95;9.85;;;15.10;94.70;;;;;;4956711;29;20043;-75
2021/10/19 04:58:00;;;;;;;14.65;10.20;;;15.20;94.70;;;;;;4940199;29;20043;-75
2021/10/19 05:00:27;;;;;;;17.73;11.68;;;15.20;94.70;;;;;;4957058;29;20464;-75
2021/10/19 05:02:57;;;;;;;14.93;11.50;;;15.10;94.70;;;;;;4956279;29;20051;-75
2021/10/19 05:05:25;;;;;;;15.48;11.10;;;15.20;94.70;;;;;;4956449;29;20047;-75
2021/10/19 05:07:54;;;;;;;14.82;10.60;;;15.20;94.70;;;;;;4939235;29;20051;-75
2021/10/19 05:10:21;;;;;;;14.93;10.98;;;15.20;94.70;;;;;;4939212;29;20058;-76
2021/10/19 05:12:49;;;;;;;15.10;10.90;;;15.20;94.70;;;;;;4939970;29;20055;-76
2021/10/19 05:15:17;;;;;;;14.30;10.90;;;15.10;94.70;;;;;;4956337;29;20062;-75
2021/10/19 05:17:45;;;;;;;14.20;11.07;;;15.20;94.80;;;;;;4956737;29;20062;-76
2021/10/19 05:20:12;;;;;;;16.88;11.23;;;15.10;94.80;;;;;;4956646;29;20055;-75
2021/10/19 05:22:40;;;;;;;16.25;11.68;;;15.10;94.80;;;;;;4956123;29;20051;-75
2021/10/19 05:25:09;;;;;;;18.83;13.18;;;15.10;94.80;;;;;;4954392;29;20066;-76
2021/10/19 05:27:38;;;;;;;19.90;14.10;;;15.10;94.80;;;;;;4954732;29;20095;-75
2021/10/19 05:30:06;;;;;;;22.73;14.40;;;15.20;94.80;;;;;;4954823;29;20058;-75
2021/10/19 05:32:35;;;;;;;22.13;14.10;;;15.20;94.90;;;;;;4956774;29;20051;-76
2021/10/19 05:35:04;;;;;;;21.17;14.40;;;15.20;94.90;;;;;;4955280;29;20074;-76
2021/10/19 05:37:32;;;;;;;22.50;15.73;;;15.20;94.90;;;;;;4955852;29;20402;-75
2021/10/19 05:39:59;;;;;;;26.77;15.40;;;15.20;95.00;;;;;;4955903;29;20054;-75
2021/10/19 05:42:44;;;;;;;32.05;17.63;;;15.20;95.00;;;;;;4956586;29;20047;-73
2021/10/19 05:45:11;;;;;;;27.75;16.65;;;15.20;95.00;;;;;;4956613;29;20051;-74
2021/10/19 05:47:41;;;;;;;28.20;16.42;;;15.20;95.00;;;;;;4971154;28;20047;-74
2021/10/19 05:50:10;;;;;;;26.85;16.02;;;15.30;95.00;;;;;;4956518;29;20047;-74
2021/10/19 05:52:37;;;;;;;28.98;16.75;;;15.30;95.00;;;;;;4957641;29;20051;-74
2021/10/19 05:55:05;;;;;;;19.70;12.85;;;15.30;95.00;;;;;;4954701;29;20066;-74
2021/10/19 05:57:33;;;;;;;28.15;12.55;;;15.30;95.10;;;;;;4956375;29;20593;-82
2021/10/19 06:00:00;;;;;;;19.98;11.68;;;15.30;95.10;;;;;;4953878;28;20416;-77
2021/10/19 06:02:38;;;;;;;17.67;10.15;;;15.30;95.10;;;;;;4955355;28;20070;-79
2021/10/19 06:05:06;;;;;;;17.45;9.55;;;15.30;95.10;;;;;;4954481;29;20058;-75
2021/10/19 06:07:34;;;;;;;13.13;7.85;;;15.30;95.20;;;;;;4955798;29;20066;-74
2021/10/19 06:10:03;;;;;;;12.70;7.40;;;15.30;95.20;;;;;;4955371;29;20469;-74
2021/10/19 06:12:31;;;;;;;10.75;6.25;;;15.30;95.20;;;;;;4970137;28;20050;-74
2021/10/19 06:14:58;;;;;;;6.78;5.05;;;15.30;95.20;;;;;;4956069;29;20389;-74
2021/10/19 06:17:26;;;;;;;7.28;4.10;;;15.30;95.30;;;;;;4938744;29;20058;-74
2021/10/19 06:19:53;;;;;;;6.50;4.28;;;15.30;95.30;;;;;;4954409;29;20401;-73
2021/10/19 06:22:21;;;;;;;6.88;4.40;;;15.30;95.40;;;;;;4955058;29;20051;-73
2021/10/19 06:24:49;;;;;;;8.30;5.65;;;15.30;95.40;;;;;;4938192;29;20050;-74
2021/10/19 06:27:16;;;;;;;14.27;5.47;;;15.40;95.40;;;;;;4955045;29;20488;-74
2021/10/19 06:29:44;;;;;;;9.05;5.90;;;15.40;95.40;;;;;;4955108;29;20416;-76
2021/10/19 06:32:11;;;;;;;11.98;6.15;;;15.40;95.40;;;;;;4955507;29;20066;-74
2021/10/19 06:34:39;;;;;;;15.90;6.75;;;15.40;95.50;;;;;;4955007;29;20044;-75
2021/10/19 06:37:06;;;;;;;12.05;6.38;;;15.50;95.50;;;;;;4954545;29;20511;-75
2021/10/19 06:39:34;;;;;;;12.27;6.82;;;15.40;95.50;;;;;;4955673;29;20500;-75
2021/10/19 06:42:01;;;;;;;13.05;7.30;;;15.40;95.50;;;;;;4969680;28;20461;-75
2021/10/19 06:44:29;;;;;;;16.13;8.60;;;15.50;95.50;;;;;;4955656;29;20043;-75
2021/10/19 06:47:13;;;;;;;13.85;7.80;;;15.50;95.60;;;;;;4955218;29;20051;-76
2021/10/19 06:49:43;;;;;;;14.20;8.15;;;15.50;95.60;;;;;;4955214;29;20039;-76
2021/10/19 06:52:11;;;;;;;17.63;8.65;;;15.50;95.60;;;;;;4954934;29;20524;-75
2021/10/19 06:54:38;;;;;;;12.70;7.18;;;15.50;95.60;;;;;;4955030;29;20072;-76
2021/10/19 06:57:06;;;;;;;10.95;7.10;;;15.50;95.60;;;;;;4955094;29;20384;-76
2021/10/19 06:59:33;;;;;;;16.13;7.50;;;15.50;95.70;;;;;;4938066;29;20047;-76
2021/10/19 07:02:01;;;;;;;12.25;7.80;;;15.60;95.70;;;;;;4938062;29;20047;-76
2021/10/19 07:04:29;;;;;;;14.00;8.15;;;15.60;95.70;;;;;;4952799;29;20118;-76
2021/10/19 07:11:31;;;;;;;14.52;7.78;;;15.70;95.80;;;;;;4955072;28;20027;-76
2021/10/19 07:14:00;;;;;;;11.80;8.15;;;15.70;95.70;;;;;;4958739;29;20063;-76
2021/10/19 07:16:27;;;;;;;14.80;8.77;;;15.70;95.70;;;;;;4958198;29;20062;-76
2021/10/19 07:18:55;;;;;;;12.15;8.00;;;15.80;95.70;;;;;;4958516;29;20437;-76
2021/10/19 07:21:23;;;;;;;14.32;8.27;;;15.80;95.80;;;;;;4958322;29;20051;-76
2021/10/19 07:28:23;;;;;;;9.93;8.10;;;15.80;95.80;;;;;;4958475;29;20365;-76
2021/10/19 07:30:51;;;;;;;9.60;7.90;;;15.90;95.80;;;;;;4958819;29;20058;-76
2021/10/19 07:33:19;;;;;;;10.00;7.63;;;15.90;95.80;;;;;;4958923;29;20453;-76
2021/10/19 07:35:46;;;;;;;8.32;7.53;;;16.00;95.80;;;;;;4958163;29;20055;-77
2021/10/19 07:38:14;;;;;;;8.57;7.40;;;16.00;95.80;;;;;;4973182;28;20047;-76
2021/10/19 07:40:42;;;;;;;8.27;7.47;;;16.10;95.80;;;;;;4958272;29;20051;-77
2021/10/19 07:43:09;;;;;;;8.05;7.30;;;16.20;95.80;;;;;;4942041;29;20046;-75
2021/10/19 07:45:39;;;;;;;8.30;7.38;;;16.20;95.80;;;;;;4958255;28;20066;-77
2021/10/19 07:48:07;;;;;;;7.70;7.00;;;16.20;95.70;;;;;;4957848;29;20051;-80
2021/10/19 07:50:34;;;;;;;7.43;6.72;;;16.30;95.70;;;;;;4960485;29;20051;-75
2021/10/19 07:53:02;;;;;;;6.93;6.32;;;16.30;95.60;;;;;;4958384;29;20059;-77
2021/10/19 07:55:33;;;;;;;7.60;5.88;;;16.30;95.60;;;;;;4940963;29;20056;-77
2021/10/19 07:58:01;;;;;;;6.50;5.80;;;16.30;95.60;;;;;;4941239;29;20401;-77
2021/10/19 08:00:29;;;;;;;6.13;4.93;;;16.40;95.60;;;;;;4957694;29;20577;-77
2021/10/19 08:02:57;;;;;;;6.40;4.95;;;16.40;95.50;;;;;;4958166;29;20048;-77
2021/10/19 08:05:26;;;;;;;5.13;4.65;;;16.40;95.50;;;;;;4957427;29;20062;-78
2021/10/19 08:08:05;;;;;;;4.80;4.38;;;16.50;95.40;;;;;;4940374;29;20485;-78
2021/10/19 08:10:33;;;;;;;4.50;4.10;;;16.50;95.40;;;;;;4941166;29;20046;-78
2021/10/19 08:13:01;;;;;;;3.35;3.10;;;16.50;95.30;;;;;;4942949;29;20074;-78
2021/10/19 08:15:29;;;;;;;5.05;3.50;;;16.50;95.30;;;;;;4957915;29;20044;-78
2021/10/19 08:17:57;;;;;;;4.78;3.22;;;16.60;95.20;;;;;;4957633;28;20070;-77
2021/10/19 08:20:24;;;;;;;3.55;3.30;;;16.60;95.10;;;;;;4957267;29;20496;-78
2021/10/19 08:22:52;;;;;;;3.30;2.85;;;16.60;95.10;;;;;;4955849;28;20043;-78
2021/10/19 08:25:20;;;;;;;2.70;2.50;;;16.70;95.10;;;;;;4956171;29;20044;-78
2021/10/19 08:27:48;;;;;;;2.50;2.40;;;16.70;95.00;;;;;;4957484;29;20047;-78
2021/10/19 08:30:18;;;;;;;4.15;2.03;;;16.70;95.00;;;;;;4957482;28;20062;-78
2021/10/19 08:32:48;;;;;;;2.70;1.92;;;16.80;94.90;;;;;;4956623;29;20464;-78
2021/10/19 08:35:18;;;;;;;2.08;1.70;;;16.80;94.90;;;;;;4957650;29;20392;-78
2021/10/19 08:37:46;;;;;;;1.70;1.60;;;16.80;94.90;;;;;;4957334;29;20527;-77
2021/10/19 08:40:14;;;;;;;1.70;1.52;;;16.80;94.80;;;;;;4955653;29;20408;-77
2021/10/19 08:42:51;;;;;;;2.03;1.80;;;16.80;94.80;;;;;;4972491;28;20142;-77
2021/10/19 08:45:20;;;;;;;1.35;1.15;;;16.80;94.80;;;;;;4957124;29;20062;-77
2021/10/19 08:47:49;;;;;;;1.52;1.00;;;16.90;94.80;;;;;;4957072;29;20051;-77
2021/10/19 08:50:20;;;;;;;1.30;1.20;;;16.90;94.80;;;;;;4971638;28;20051;-77
2021/10/19 08:52:48;;;;;;;1.20;1.05;;;16.90;94.70;;;;;;4957603;29;20051;-77
2021/10/19 08:55:16;;;;;;;1.00;0.90;;;16.90;94.70;;;;;;4957157;28;20500;-77
2021/10/19 08:57:44;;;;;;;0.80;0.80;;;17.00;94.60;;;;;;4956986;29;20043;-76
2021/10/19 09:00:13;;;;;;;1.60;1.00;;;17.00;94.50;;;;;;4956118;28;20420;-78
2021/10/19 09:02:43;;;;;;;2.53;1.10;;;17.00;94.60;;;;;;4955429;29;20054;-75
2021/10/19 09:05:15;;;;;;;1.95;1.02;;;17.00;94.50;;;;;;4956354;29;20054;-76
2021/10/19 09:08:00;;;;;;;2.15;1.02;;;17.10;94.50;;;;;;4940230;29;20051;-76
2021/10/19 09:10:36;;;;;;;1.70;1.02;;;17.10;94.40;;;;;;4955383;29;20149;-76
2021/10/19 09:13:11;;;;;;;2.03;1.17;;;17.20;94.40;;;;;;4956670;29;20050;-75
2021/10/19 09:15:42;;;;;;;1.25;1.15;;;17.20;94.40;;;;;;4956394;29;20062;-76
2021/10/19 09:18:13;;;;;;;1.42;1.10;;;17.20;94.40;;;;;;4939251;29;20055;-75
2021/10/19 09:20:44;;;;;;;2.72;1.40;;;17.20;94.30;;;;;;4939978;29;20062;-76
2021/10/19 09:23:13;;;;;;;2.17;1.65;;;17.20;94.30;;;;;;4956710;29;20054;-75
2021/10/19 09:25:44;;;;;;;1.60;1.45;;;17.30;94.40;;;;;;4956321;29;20054;-75
2021/10/19 09:28:14;;;;;;;2.75;1.60;;;17.30;94.40;;;;;;4923850;29;20047;-75
2021/10/19 09:30:50;;;;;;;2.05;1.60;;;17.30;94.40;;;;;;4923225;29;20056;-75
2021/10/19 09:33:20;;;;;;;2.53;1.73;;;17.30;94.40;;;;;;4938786;29;20508;-75
2021/10/19 09:35:50;;;;;;;3.45;1.70;;;17.30;94.40;;;;;;4938335;29;20043;-79
2021/10/19 09:38:18;;;;;;;1.63;1.50;;;17.30;94.40;;;;;;4956367;28;20063;-78
2021/10/19 09:40:52;;;;;;;2.88;1.80;;;17.30;94.40;;;;;;4955361;29;20059;-80
2021/10/19 09:43:20;;;;;;;;;;;17.30;94.40;;;;;;4956840;29;20381;-79
2021/10/19 09:45:52;;;;;;;3.38;1.98;;;17.40;94.30;;;;;;4939369;29;19922;-77
2021/10/19 09:48:26;;;;;;;3.25;1.70;;;17.40;94.30;;;;;;4956818;29;20055;-77
2021/10/19 09:50:55;;;;;;;2.65;1.40;;;17.40;94.30;;;;;;4970567;28;20485;-74
2021/10/19 09:53:25;;;;;;;2.67;1.63;;;17.40;94.40;;;;;;4955302;29;20058;-74
2021/10/19 09:55:55;;;;;;;3.83;1.70;;;17.40;94.40;;;;;;4938424;29;20119;-75
2021/10/19 09:58:24;;;;;;;2.53;1.30;;;17.40;94.40;;;;;;4955589;29;20058;-78
2021/10/19 10:00:53;;;;;;;1.40;1.30;;;17.50;94.40;;;;;;4955600;29;20059;-76
2021/10/19 10:03:23;;;;;;;3.53;1.80;;;17.40;94.30;;;;;;4956281;29;20519;-75
2021/10/19 10:05:52;;;;;;;2.78;1.55;;;17.50;94.30;;;;;;4954908;29;20074;-75
2021/10/19 10:08:23;;;;;;;4.32;1.67;;;17.50;94.30;;;;;;4938806;29;20075;-76
2021/10/19 10:10:55;;;;;;;4.20;1.60;;;17.50;94.20;;;;;;4938385;29;20047;-74
2021/10/19 10:13:24;;;;;;;4.80;1.55;;;17.50;94.20;;;;;;4953264;29;20055;-75
2021/10/19 10:15:53;;;;;;;1.80;1.38;;;17.50;94.20;;;;;;4955245;29;20070;-74
2021/10/19 10:18:32;;;;;;;3.45;1.55;;;17.50;94.10;;;;;;4969682;28;20055;-75
2021/10/19 10:21:15;;;;;;;1.85;1.60;;;17.60;94.10;;;;;;4938749;29;20050;-74
2021/10/19 10:23:43;;;;;;;1.50;1.20;;;17.60;94.10;;;;;;4922807;29;20483;-75
2021/10/19 10:26:29;;;;;;;2.58;1.20;;;17.60;94.00;;;;;;4937844;29;20050;-75
2021/10/19 10:29:11;;;;;;;1.55;1.08;;;17.60;93.70;;;;;;4937945;29;20051;-75
2021/10/19 10:31:50;;;;;;;1.35;1.25;;;17.70;93.60;;;;;;4955114;29;20070;-75
2021/10/19 10:34:32;;;;;;;1.75;1.13;;;17.70;93.40;;;;;;4954990;29;20055;-75
2021/10/19 10:37:11;;;;;;;1.95;0.90;;;17.80;93.40;;;;;;4938635;29;20507;-75
2021/10/19 10:39:45;;;;;;;6.55;1.30;;;17.80;93.10;;;;;;4955211;29;20039;-75
2021/10/19 10:42:15;;;;;;;1.20;0.95;;;17.80;92.80;;;;;;4955089;29;20062;-75
2021/10/19 10:44:45;;;;;;;1.50;0.90;;;17.80;92.80;;;;;;4954953;28;20489;-75
2021/10/19 10:47:19;;;;;;;1.25;1.15;;;17.80;92.60;;;;;;4938144;29;20055;-75
2021/10/19 10:49:48;;;;;;;1.45;0.80;;;17.90;92.60;;;;;;4938257;29;20152;-75
2021/10/19 10:52:18;;;;;;;1.90;1.25;;;18.00;92.50;;;;;;4955295;29;20059;-75
2021/10/19 10:54:53;;;;;;;0.95;0.95;;;17.90;92.40;;;;;;4954768;28;20055;-75
2021/10/19 10:57:21;;;;;;;2.03;1.02;;;18.00;92.10;;;;;;4955413;29;20047;-75
2021/10/19 10:59:55;;;;;;;0.80;0.80;;;18.10;91.90;;;;;;4954202;28;20055;-75
2021/10/19 11:02:27;;;;;;;1.52;1.00;;;18.10;91.80;;;;;;4955173;29;20047;-76
2021/10/19 11:04:55;;;;;;;1.77;1.00;;;18.10;91.70;;;;;;4954859;29;20043;-76
2021/10/19 11:07:34;;;;;;;1.63;0.90;;;18.10;91.70;;;;;;4936989;29;20052;-76
2021/10/19 11:10:10;;;;;;;1.60;1.10;;;18.00;91.60;;;;;;4954799;29;20377;-76
2021/10/19 11:12:38;;;;;;;0.90;0.77;;;18.10;91.60;;;;;;4955092;29;20393;-76
2021/10/19 11:15:17;;;;;;;1.00;0.98;;;18.10;91.70;;;;;;4937883;29;20066;-76
2021/10/19 11:17:50;;;;;;;1.63;0.98;;;18.20;91.40;;;;;;4956063;29;20043;-75
2021/10/19 11:20:20;;;;;;;2.47;1.05;;;18.20;91.40;;;;;;4939698;29;20383;-76
2021/10/19 11:22:49;;;;;;;0.80;0.77;;;18.20;91.30;;;;;;4937287;29;20054;-75
2021/10/19 11:25:18;;;;;;;1.08;0.90;;;18.20;91.10;;;;;;4953709;29;20055;-77
2021/10/19 11:27:46;;;;;;;2.03;0.80;;;18.20;91.10;;;;;;4937850;29;20062;-76
2021/10/19 11:30:14;;;;;;;0.77;0.73;;;18.20;91.10;;;;;;4936793;29;20051;-76
2021/10/19 11:32:42;;;;;;;0.52;0.50;;;18.20;90.80;;;;;;4937366;29;20050;-76
2021/10/19 11:35:10;;;;;;;2.22;0.70;;;18.20;90.70;;;;;;4937184;29;20062;-80
2021/10/19 11:37:38;;;;;;;0.70;0.70;;;18.20;90.70;;;;;;4954835;29;20438;-76
2021/10/19 11:40:09;;;;;;;0.98;0.80;;;18.20;90.70;;;;;;4936897;29;20059;-77
2021/10/19 11:42:42;;;;;;;1.88;0.70;;;18.10;90.60;;;;;;4969715;28;20511;-76
2021/10/19 11:45:10;;;;;;;0.90;0.90;;;18.10;90.60;;;;;;4938464;29;20101;-76
2021/10/19 11:47:46;;;;;;;2.17;0.82;;;18.10;90.90;;;;;;4956524;29;20420;-76
2021/10/19 11:54:45;;;;;;;0.80;0.77;;;18.00;91.10;;;;;;4954041;29;20516;-75
2021/10/19 11:57:13;;;;;;;1.55;0.70;;;18.10;91.00;;;;;;4954071;28;20071;-76
2021/10/19 12:04:16;;;;;;;0.60;0.60;;;18.00;91.30;;;;;;4957618;28;20039;-75
2021/10/19 12:06:46;;;;;;;1.55;0.60;;;17.90;91.40;;;;;;4957371;29;20054;-75
2021/10/19 12:09:23;;;;;;;1.20;0.43;;;17.90;91.60;;;;;;4957414;28;20055;-76
2021/10/19 12:11:56;;;;;;;0.95;0.52;;;17.90;91.80;;;;;;4957674;29;20043;-77
2021/10/19 12:14:28;;;;;;;2.35;0.68;;;17.90;91.80;;;;;;4956847;29;20059;-78
2021/10/19 12:16:57;;;;;;;0.90;0.50;;;17.90;91.60;;;;;;4957765;29;20481;-76
2021/10/19 12:19:25;;;;;;;0.77;0.60;;;18.00;91.70;;;;;;4957218;29;20051;-76
2021/10/19 12:26:29;;;;;;;1.00;0.60;;;18.30;91.10;;;;;;4957882;29;20050;-76
2021/10/19 12:29:02;;;;;;;0.60;0.60;;;18.40;90.50;;;;;;4924066;29;20075;-76
2021/10/19 12:31:30;;;;;;;;;;;18.50;90.10;;;;;;4957579;29;20437;-76
2021/10/19 12:34:00;;;;;;;0.45;0.40;;;18.80;89.50;;;;;;4956082;29;19922;-76
2021/10/19 12:41:16;;;;;;;0.50;0.50;;;19.10;88.70;;;;;;4957569;28;20035;-76
2021/10/19 12:43:47;;;;;;;0.90;0.52;;;19.00;87.90;;;;;;4940594;29;20365;-76
2021/10/19 12:46:19;;;;;;;0.50;0.40;;;19.00;88.10;;;;;;4956758;29;20054;-76
2021/10/19 12:48:47;;;;;;;0.50;0.38;;;19.00;87.70;;;;;;4957160;29;20051;-78
2021/10/19 12:51:18;;;;;;;1.05;0.50;;;19.00;88.00;;;;;;4958952;29;20526;-78
2021/10/19 12:53:49;;;;;;;1.48;0.30;;;19.10;87.90;;;;;;4939819;29;20396;-76
2021/10/19 12:56:27;;;;;;;1.55;0.50;;;19.30;87.30;;;;;;4955595;29;20059;-76
2021/10/19 12:58:56;;;;;;;0.35;0.30;;;19.60;86.50;;;;;;4956708;29;20058;-76
2021/10/19 13:01:24;;;;;;;1.70;0.70;;;19.80;85.60;;;;;;4956289;29;20047;-76
2021/10/19 13:03:54;;;;;;;1.00;0.40;;;19.90;85.00;;;;;;4956716;29;20051;-76
2021/10/19 13:10:55;;;;;;;0.40;0.40;;;19.90;83.90;;;;;;4955395;28;20039;-76
2021/10/19 13:13:23;;;;;;;2.80;0.50;;;19.60;84.10;;;;;;4956170;29;20059;-76
2021/10/19 13:15:51;;;;;;;0.85;0.60;;;19.40;84.50;;;;;;4955199;29;20392;-76
2021/10/19 13:18:26;;;;;;;0.88;0.50;;;19.30;84.90;;;;;;4940280;29;20074;-76
2021/10/19 13:20:55;;;;;;;0.63;0.60;;;19.10;85.20;;;;;;4956334;29;20055;-76
2021/10/19 13:23:23;;;;;;;1.35;0.63;;;19.10;85.60;;;;;;4955953;29;20054;-76
2021/10/19 13:25:51;;;;;;;0.52;0.52;;;19.00;85.80;;;;;;4956134;29;20056;-76
2021/10/19 13:28:19;;;;;;;1.85;0.63;;;19.00;86.10;;;;;;4955997;29;20043;-81
2021/10/19 13:30:47;;;;;;;1.52;0.65;;;19.00;86.10;;;;;;4956017;29;20055;-75